Nearby METAR Reports

 

KAST - Astoria, Oregon, USA
Distance from station: N 11mi, 18km
Updated: Mon, 06-Feb-2023 8:27pm PST
Haze, Overcast
Haze, Overcast
 Wind from S
Wind: S 10 mph , 17 km/h
Temperature: 48°F , 9°C
Wind Chill: 44°F , 7°C
Dew Point: 43°F , 6°C
Humidity: 82%
Barometer: 30.34 inHg , 1027.4 hPa
Summary: Haze
Clouds: Overcast
Visibility: 6 miles , 10 km
Cloud details: Few Clouds 1800 ft
Mostly cloudy 4000 ft
Overcast 4900 ft
2023/02/07 04:27 KAST 070427Z AUTO 19009KT 6SM HZ FEW018 BKN040 OVC049 09/06 A3034 RMK AO2 T00890061
KTMK - Tillamook, Oregon, USA
Distance from station: S 40mi, 64km
Updated: Mon, 06-Feb-2023 8:30pm PST
Overcast
Overcast
 Wind from SSE
Wind: SSE 9 mph , 15 km/h
Temperature: 46°F , 8°C
Wind Chill: 41°F , 5°C
Dew Point: 43°F , 6°C
Humidity: 87%
Barometer: 30.41 inHg , 1029.8 hPa
Clouds: Overcast
Visibility: 7 miles , 11 km
Cloud details: Mostly cloudy 2400 ft
Mostly cloudy 3100 ft
Overcast 4600 ft
2023/02/07 04:30 KTMK 070430Z AUTO 16008KT 7SM BKN024 BKN031 OVC046 08/06 A3041 RMK AO2
 
KKLS - Kelso Longveiw, Washington, USA
Distance from station: E 50mi, 81km
Updated: Mon, 06-Feb-2023 6:56pm PST
NOT Current
Overcast
Overcast
 Wind from SSE
Wind: SSE 10 mph , 17 km/h
Temperature: 46°F , 8°C
Wind Chill: 41°F , 5°C
Dew Point: 45°F , 7°C
Humidity: 93%
Barometer: 30.41 inHg , 1029.8 hPa
Clouds: Overcast
Visibility: 10 miles , 16 km
Cloud details: Overcast 1100 ft
2023/02/07 02:56 KKLS 070256Z AUTO 16009KT 10SM OVC011 08/07 A3041 RMK AO2 SLP302 P0001 60002 T00780067 58011 $
KSPB - Scappoose, Oregon, USA
Distance from station: ESE 53mi, 86km
Updated: Mon, 06-Feb-2023 7:53pm PST
Overcast
Overcast
 Wind from SSE
Wind: SSE 6 mph , 9 km/h
Temperature: 46°F , 8°C
Wind Chill: 43°F , 6°C
Dew Point: 43°F , 6°C
Humidity: 87%
Barometer: 30.41 inHg , 1029.8 hPa
Clouds: Overcast
Visibility: 10 miles , 16 km
Cloud details: Mostly cloudy 1700 ft
Overcast 2200 ft
2023/02/07 03:53 KSPB 070353Z AUTO 16005KT 10SM BKN017 OVC022 08/06 A3041 RMK AO2 SLP297 T00780061
 
KHIO - Hillsboro/Portld, Oregon, USA
Distance from station: ESE 56mi, 90km
Updated: Mon, 06-Feb-2023 7:53pm PST
Mist, Overcast
Mist, Overcast
 Wind from SSE
Wind: SSE 7 mph , 11 km/h
Temperature: 46°F , 8°C
Wind Chill: 42°F , 6°C
Dew Point: 45°F , 7°C
Humidity: 93%
Barometer: 30.41 inHg , 1029.8 hPa
Summary: Mist
Clouds: Overcast
Visibility: 6 miles , 10 km
Cloud details: Mostly cloudy 1900 ft
Overcast 2800 ft
2023/02/07 03:53 KHIO 070353Z 16006KT 6SM BR BKN019 OVC028 08/07 A3041 RMK AO2 RAB08E17 SLP299 P0000 T00780067